Airfield :
LOGIN :

Register | Disclaimer

   EN    FR    IT 

 










Legend :    VFR   Marginal VFR   IFR   Intensive IFR   Very Intensive IFR
Visi :
Ceiling :
>= 8 km
>= 3000ft
5 to 8 km
1000 to 3000 ft
1500m to 5 km
500 to 1000 ft
800 to 1500m
200 to 500 ft
< 800m
< 200 ft
Symbols :   Thunderstorms  Fog  Heavy snow  Heavy precipitations  Wind > 20 kt
SIGMETs :     Misc.  Thunderstorms  Icing  Turbulence  Mountain Waves  Volcanic Ashes






- Airport Elevation : 204 ft
- IATA code : KSU


ENKB - Kristiansund , Kvernberget

CURRENT METAR :
  • 171420Z 21008KT 180V260 9999 FEW025 BKN038 06/01 Q1012 RMK WIND 745FT 22015KT

EXPIRED METARs :
  • 171350Z 22007KT 190V270 9999 FEW023 BKN032 06/01 Q1012 RMK WIND 745FT 23014KT
  • 171320Z 21006KT 150V250 9999 FEW023 BKN037 05/01 Q1011 RMK WIND 745FT 22012KT
  • 171250Z VRB03KT 9999 FEW033 BKN120 05/00 Q1011 RMK WIND 745FT 21010KT
  • 171220Z 20004KT 110V250 9999 SCT030 BKN110 05/01 Q1011 RMK WIND 745FT 21011KT
  • 171150Z 23006KT 190V270 9999 FEW028 BKN082 06/01 Q1010 RMK WIND 745FT 23013KT

TAF TAF ENKB
Valid from the 17 at 15:00 until the 17 at 23:00 UTC


171400Z 1715/1723 23008KT 9999 FEW025 BKN030



MET'MAP, your aeronautical weather chart ! - Copyright ORBIFLY December 2007 - Disclaimer

ORBIFLY MET'MAP TEAM :

Programming & Development : Alexandra Zaïnal
Concept & Development : Baudouin d'Aumeries
Co-Development & Prog : Marc-Olivier Méhu
Technical & hardware support : Manuel Goepfert

Contact : metmap@orbifly.com




SOURCES & CREDITS :

   NOAA